STL weather

St Louis Lambert International Airport
St Louis, Missouri, United States

Public forecast

Using degrees Fahrenheit for public forecast. Weather courtesy of forecast.io.

Current aviation weather report (METAR) for St Louis Lambert International Airport

Retrieved 2019/10/23 01:51 UTC (22 minutes ago):

KSTL 230151Z 26007KT 10SM CLR 09/M02 A2999 RMK AO2 SLP158 T00941022

Aviation forecast (TAF) for St Louis Lambert International Airport

Retrieved 2019-10-23 00:42 UTC (2 hours ago):

TAF KSTL 222340Z 2300/2406 26012G22KT P6SM SKC FM230200 25008KT P6SM SKC FM230600 22006KT P6SM SKC FM231500 21014G24KT P6SM SCT120 FM240000 21010KT P6SM BKN120